Time;durP1;ratioP1;P1;durP2;ratioP2;P2;SDS_P1;SDS_P2;PMS_P1;PMS_P2;Temp;Humidity;BMP_temperature;BMP_pressure;BME280_temperature;BME280_humidity;BME280_pressure;Samples;Min_cycle;Max_cycle;Signal;HPM_P1;HPM_P2
2024/02/28 00:02:09;;;;;;;18.05;12.77;;;6.20;99.90;;;;;;4991929;28;20018;-55
2024/02/28 00:04:35;;;;;;;18.88;12.77;;;6.20;99.90;;;;;;5008952;28;20039;-46
2024/02/28 00:07:00;;;;;;;18.30;12.68;;;6.20;99.90;;;;;;5008231;28;20042;-53
2024/02/28 00:09:26;;;;;;;17.05;10.90;;;6.20;99.90;;;;;;5009526;28;20036;-55
2024/02/28 00:11:51;;;;;;;14.73;11.63;;;6.10;99.90;;;;;;5009802;28;20068;-54
2024/02/28 00:14:17;;;;;;;18.00;12.55;;;6.10;99.90;;;;;;5009842;28;20038;-54
2024/02/28 00:16:44;;;;;;;16.00;11.73;;;6.10;99.90;;;;;;5009603;28;20080;-54
2024/02/28 00:19:11;;;;;;;17.60;12.10;;;6.10;99.90;;;;;;5009479;28;20437;-55
2024/02/28 00:21:36;;;;;;;17.60;11.65;;;6.00;99.90;;;;;;5009450;28;20033;-52
2024/02/28 00:24:02;;;;;;;20.80;13.95;;;6.00;99.90;;;;;;5009446;28;20429;-55
2024/02/28 00:26:28;;;;;;;20.73;13.68;;;6.00;99.90;;;;;;4992733;28;20030;-57
2024/02/28 00:28:53;;;;;;;18.42;11.85;;;6.00;99.90;;;;;;4989577;28;20026;-54
2024/02/28 00:31:21;;;;;;;16.83;13.00;;;6.00;99.90;;;;;;4989510;28;20029;-56
2024/02/28 00:33:47;;;;;;;19.90;14.05;;;6.00;99.90;;;;;;4988164;28;20053;-52
2024/02/28 00:36:15;;;;;;;17.60;12.48;;;5.90;99.90;;;;;;4989347;28;20039;-52
2024/02/28 00:38:40;;;;;;;19.85;13.57;;;5.90;99.90;;;;;;4989394;28;20532;-55
2024/02/28 00:41:06;;;;;;;17.88;13.63;;;5.90;99.90;;;;;;4989374;28;20031;-49
2024/02/28 00:43:31;;;;;;;19.23;13.70;;;6.00;99.90;;;;;;4990282;28;20034;-52
2024/02/28 00:45:58;;;;;;;14.65;11.52;;;6.00;99.90;;;;;;4989493;28;20482;-57
2024/02/28 00:48:24;;;;;;;19.20;13.05;;;6.00;99.90;;;;;;4989591;28;20033;-49
2024/02/28 00:50:49;;;;;;;18.30;13.93;;;6.00;99.90;;;;;;4989642;28;20034;-54
2024/02/28 00:53:15;;;;;;;20.40;12.48;;;6.00;99.90;;;;;;4989714;28;20037;-48
2024/02/28 00:55:40;;;;;;;38.15;22.70;;;5.90;99.90;;;;;;4992790;28;20073;-53
2024/02/28 00:58:06;;;;;;;22.70;15.93;;;5.90;99.90;;;;;;5004251;28;20033;-49
2024/02/28 01:00:31;;;;;;;20.33;12.70;;;5.90;99.90;;;;;;5029699;28;20113;-55
2024/02/28 01:02:57;;;;;;;18.42;12.73;;;5.90;99.90;;;;;;5012674;28;20098;-50
2024/02/28 01:05:22;;;;;;;18.83;12.30;;;5.90;99.90;;;;;;5012937;28;20105;-51
2024/02/28 01:07:48;;;;;;;18.80;12.95;;;5.90;99.90;;;;;;5013187;28;20053;-55
2024/02/28 01:10:13;;;;;;;22.17;12.57;;;5.80;99.90;;;;;;5012423;28;20044;-51
2024/02/28 01:12:39;;;;;;;20.60;13.38;;;5.80;99.90;;;;;;5012547;28;20055;-50
2024/02/28 01:15:05;;;;;;;19.98;13.02;;;5.80;99.90;;;;;;5012659;28;20076;-55
2024/02/28 01:17:31;;;;;;;16.00;12.00;;;5.70;99.90;;;;;;5012501;28;20022;-51
2024/02/28 01:19:57;;;;;;;20.98;12.20;;;5.70;99.90;;;;;;5012515;28;20030;-51
2024/02/28 01:22:22;;;;;;;16.17;11.85;;;5.70;99.90;;;;;;5013204;28;20397;-52
2024/02/28 01:24:48;;;;;;;19.85;14.05;;;5.60;99.90;;;;;;5007838;28;20035;-52
2024/02/28 01:27:13;;;;;;;16.02;12.18;;;5.60;99.90;;;;;;5007115;28;20493;-54
2024/02/28 01:29:39;;;;;;;18.52;12.43;;;5.50;99.90;;;;;;5007137;28;20025;-56
2024/02/28 01:32:04;;;;;;;18.92;13.30;;;5.50;99.90;;;;;;5011695;28;20056;-56
2024/02/28 01:34:30;;;;;;;17.70;12.57;;;5.50;99.90;;;;;;5011234;28;20030;-53
2024/02/28 01:36:55;;;;;;;15.65;11.82;;;5.50;99.90;;;;;;5012983;28;20065;-55
2024/02/28 01:39:21;;;;;;;22.27;12.88;;;5.50;99.90;;;;;;5013251;28;20030;-57
2024/02/28 01:41:54;;;;;;;16.77;12.32;;;5.40;99.90;;;;;;5015085;28;20029;-55
2024/02/28 01:44:20;;;;;;;17.10;13.40;;;5.40;99.90;;;;;;5014789;28;20104;-60
2024/02/28 01:46:46;;;;;;;17.15;12.40;;;5.40;99.90;;;;;;5014822;28;20038;-53
2024/02/28 01:49:12;;;;;;;20.38;13.13;;;5.40;99.90;;;;;;5015993;28;20394;-57
2024/02/28 01:51:37;;;;;;;16.77;11.43;;;5.40;99.90;;;;;;5019573;28;20037;-57
2024/02/28 01:54:03;;;;;;;19.63;13.48;;;5.40;99.90;;;;;;5014757;28;20584;-55
2024/02/28 01:56:30;;;;;;;20.15;13.40;;;5.30;99.90;;;;;;5014797;28;20022;-53
2024/02/28 01:58:57;;;;;;;20.90;15.13;;;5.30;99.90;;;;;;5014648;28;20396;-53
2024/02/28 02:01:22;;;;;;;21.80;14.98;;;5.30;99.90;;;;;;5014455;28;20083;-52
2024/02/28 02:03:48;;;;;;;23.95;15.18;;;5.30;99.90;;;;;;5014552;28;20101;-57
2024/02/28 02:06:14;;;;;;;20.02;12.40;;;5.30;99.90;;;;;;5014207;28;20405;-53
2024/02/28 02:08:40;;;;;;;20.45;13.43;;;5.30;99.90;;;;;;5014309;28;20589;-56
2024/02/28 02:11:06;;;;;;;19.08;14.15;;;5.20;99.90;;;;;;5014808;28;20049;-55
2024/02/28 02:13:32;;;;;;;22.00;14.30;;;5.20;99.90;;;;;;5014383;28;20512;-53
2024/02/28 02:15:58;;;;;;;18.90;13.95;;;;;;;;;;5014301;28;20026;-55
2024/02/28 02:18:23;;;;;;;20.15;13.70;;;5.30;99.90;;;;;;5014174;28;20429;-54
2024/02/28 02:20:58;;;;;;;22.20;14.35;;;5.10;99.90;;;;;;4996519;28;20025;-57
2024/02/28 02:23:24;;;;;;;19.08;13.57;;;5.10;99.90;;;;;;5014154;28;20034;-54
2024/02/28 02:25:49;;;;;;;18.55;13.48;;;5.10;99.90;;;;;;5014076;28;20026;-55
2024/02/28 02:28:15;;;;;;;21.98;14.80;;;5.00;99.90;;;;;;5013982;28;20057;-56
2024/02/28 02:30:41;;;;;;;22.00;15.38;;;5.00;99.90;;;;;;5013669;28;20057;-60
2024/02/28 02:33:07;;;;;;;21.15;14.43;;;4.90;99.90;;;;;;5013908;28;20374;-58
2024/02/28 02:35:34;;;;;;;18.35;13.10;;;4.90;99.90;;;;;;5013882;28;20072;-59
2024/02/28 02:37:59;;;;;;;24.25;14.85;;;4.80;99.90;;;;;;5013852;28;20022;-59
2024/02/28 02:40:25;;;;;;;18.98;14.15;;;4.80;99.90;;;;;;5013401;28;20029;-56
2024/02/28 02:42:51;;;;;;;21.15;14.70;;;4.80;99.90;;;;;;5013879;28;20231;-56
2024/02/28 02:45:16;;;;;;;21.13;14.02;;;4.80;99.90;;;;;;5013676;28;20030;-54
2024/02/28 02:47:43;;;;;;;19.00;14.38;;;4.80;99.90;;;;;;4995740;28;20030;-57
2024/02/28 02:50:09;;;;;;;20.42;14.65;;;4.70;99.90;;;;;;5013545;28;20031;-56
2024/02/28 02:52:35;;;;;;;19.92;14.15;;;4.70;99.90;;;;;;5013596;28;20026;-57
2024/02/28 02:55:01;;;;;;;20.65;14.80;;;4.60;99.90;;;;;;5013541;28;20033;-56
2024/02/28 02:57:26;;;;;;;22.00;13.70;;;4.50;99.90;;;;;;5013402;28;20037;-57
2024/02/28 02:59:52;;;;;;;23.25;13.98;;;4.50;99.90;;;;;;5013516;28;20030;-54
2024/02/28 03:02:17;;;;;;;19.70;14.07;;;4.50;99.90;;;;;;5013478;28;20022;-55
2024/02/28 03:04:43;;;;;;;23.73;14.95;;;4.40;99.90;;;;;;5013508;28;20136;-53
2024/02/28 03:07:08;;;;;;;21.75;14.00;;;4.40;99.90;;;;;;5013253;28;20026;-52
2024/02/28 03:09:34;;;;;;;20.10;14.25;;;4.50;99.90;;;;;;5013260;28;20026;-52
2024/02/28 03:11:59;;;;;;;18.02;12.88;;;4.40;99.90;;;;;;5013275;28;20046;-55
2024/02/28 03:14:27;;;;;;;20.58;13.23;;;4.40;99.90;;;;;;5012899;28;20124;-53
2024/02/28 03:16:53;;;;;;;20.00;13.57;;;4.30;99.90;;;;;;5012541;28;20477;-54
2024/02/28 03:19:18;;;;;;;23.50;14.82;;;4.30;99.90;;;;;;5013088;28;20398;-52
2024/02/28 03:21:44;;;;;;;19.92;13.50;;;4.40;99.90;;;;;;5013073;28;20022;-56
2024/02/28 03:24:09;;;;;;;25.55;16.67;;;4.30;99.90;;;;;;5012961;28;20478;-56
2024/02/28 03:26:35;;;;;;;25.30;15.90;;;4.30;99.90;;;;;;5012767;28;20038;-58
2024/02/28 03:29:00;;;;;;;29.50;15.23;;;4.30;99.90;;;;;;5012968;28;20386;-52
2024/02/28 03:31:26;;;;;;;21.00;14.82;;;4.30;99.90;;;;;;5012716;28;20029;-56
2024/02/28 03:33:52;;;;;;;25.88;16.35;;;4.30;99.90;;;;;;5012701;28;20504;-54
2024/02/28 03:36:17;;;;;;;20.42;15.02;;;4.30;99.90;;;;;;5012584;28;20026;-58
2024/02/28 03:38:43;;;;;;;23.67;15.35;;;4.30;99.90;;;;;;5012731;28;20026;-55
2024/02/28 03:41:09;;;;;;;20.08;13.93;;;4.20;99.90;;;;;;4994996;28;20474;-53
2024/02/28 03:43:35;;;;;;;24.27;15.98;;;4.20;99.90;;;;;;5012952;28;20037;-53
2024/02/28 03:46:00;;;;;;;27.45;15.82;;;4.20;99.90;;;;;;5012513;28;20026;-57
2024/02/28 03:48:26;;;;;;;25.50;16.27;;;4.20;99.90;;;;;;5012341;28;20049;-54
2024/02/28 03:50:51;;;;;;;30.55;18.45;;;4.10;99.90;;;;;;5012167;28;20040;-53
2024/02/28 03:53:17;;;;;;;30.58;17.77;;;4.20;99.90;;;;;;5012405;28;20022;-55
2024/02/28 03:55:46;;;;;;;28.52;16.73;;;4.30;99.90;;;;;;5012308;28;20026;-57
2024/02/28 03:58:11;;;;;;;33.97;19.70;;;4.30;99.90;;;;;;5012405;28;20075;-57
2024/02/28 04:00:37;;;;;;;30.55;17.30;;;4.30;99.90;;;;;;5012438;28;20025;-52
2024/02/28 04:03:03;;;;;;;24.17;15.82;;;4.30;99.90;;;;;;4994691;28;20022;-55
2024/02/28 04:05:29;;;;;;;23.50;15.98;;;4.30;99.90;;;;;;5012395;28;20026;-54
2024/02/28 04:07:55;;;;;;;19.45;14.80;;;4.30;99.90;;;;;;5012131;28;20486;-57
2024/02/28 04:10:21;;;;;;;24.30;17.27;;;4.20;99.90;;;;;;5012143;28;20458;-55
2024/02/28 04:12:46;;;;;;;25.60;16.20;;;4.20;99.90;;;;;;5012338;28;20053;-54
2024/02/28 04:15:12;;;;;;;30.33;17.45;;;4.10;99.90;;;;;;5012120;28;20117;-57
2024/02/28 04:17:38;;;;;;;32.67;19.98;;;4.10;99.90;;;;;;5011954;28;20072;-50
2024/02/28 04:20:11;;;;;;;28.58;18.23;;;4.20;99.90;;;;;;4994631;28;20025;-55
2024/02/28 04:22:37;;;;;;;25.75;17.63;;;4.20;99.90;;;;;;5012189;28;20053;-52
2024/02/28 04:25:04;;;;;;;25.02;16.73;;;4.10;99.90;;;;;;5011955;28;20482;-53
2024/02/28 04:27:29;;;;;;;26.13;16.88;;;4.00;99.90;;;;;;5012370;28;20109;-57
2024/02/28 04:29:55;;;;;;;25.05;16.58;;;3.90;99.90;;;;;;5011212;28;20108;-51
2024/02/28 04:32:20;;;;;;;22.70;15.02;;;3.90;99.90;;;;;;5012005;28;20108;-57
2024/02/28 04:34:45;;;;;;;26.90;17.13;;;3.80;99.90;;;;;;5012115;28;20093;-56
2024/02/28 04:37:11;;;;;;;26.92;17.08;;;3.80;99.90;;;;;;5011822;28;20480;-54
2024/02/28 04:39:36;;;;;;;27.88;17.83;;;3.80;99.90;;;;;;5011985;28;20022;-54
2024/02/28 04:42:02;;;;;;;25.98;16.05;;;3.80;99.90;;;;;;5011990;28;20460;-57
2024/02/28 04:44:28;;;;;;;29.73;17.33;;;3.70;99.90;;;;;;5011690;28;20032;-58
2024/02/28 04:46:53;;;;;;;23.63;16.42;;;3.70;99.90;;;;;;5011769;28;20088;-55
2024/02/28 04:49:19;;;;;;;31.25;19.13;;;3.70;99.90;;;;;;5011905;28;20026;-56
2024/02/28 04:51:44;;;;;;;32.25;19.52;;;3.80;99.90;;;;;;5011741;28;20041;-57
2024/02/28 04:54:10;;;;;;;28.67;18.80;;;3.70;99.90;;;;;;5011829;28;20030;-57
2024/02/28 04:56:40;;;;;;;31.88;21.23;;;3.70;99.90;;;;;;5011649;28;20069;-55
2024/02/28 04:59:06;;;;;;;35.67;21.80;;;3.70;99.90;;;;;;5011647;28;20050;-50
2024/02/28 05:01:31;;;;;;;34.67;21.45;;;3.70;99.90;;;;;;5011673;28;20057;-52
2024/02/28 05:03:57;;;;;;;34.20;22.08;;;;;;;;;;5010495;28;20026;-56
2024/02/28 05:06:25;;;;;;;35.75;21.40;;;4.00;99.90;;;;;;5011776;28;20494;-58
2024/02/28 05:08:50;;;;;;;31.42;20.35;;;3.70;99.90;;;;;;5011643;28;20084;-52
2024/02/28 05:11:16;;;;;;;39.97;23.75;;;3.70;99.90;;;;;;5011557;28;20033;-55
2024/02/28 05:13:43;;;;;;;46.45;24.25;;;4.70;99.90;;;;;;4993767;28;20486;-52
2024/02/28 05:16:16;;;;;;;40.83;24.55;;;3.80;99.90;;;;;;5011369;28;20038;-54
2024/02/28 05:18:42;;;;;;;44.35;25.83;;;;;;;;;;5011426;28;20153;-50
2024/02/28 05:21:08;;;;;;;44.05;25.48;;;;;;;;;;5011557;28;20014;-50
2024/02/28 05:23:34;;;;;;;43.00;24.67;;;;;;;;;;5011635;28;20029;-55
2024/02/28 05:26:03;;;;;;;39.05;24.58;;;3.80;99.90;;;;;;5011935;28;20057;-55
2024/02/28 05:28:35;;;;;;;39.58;22.13;;;3.70;99.90;;;;;;5011483;28;20026;-50
2024/02/28 05:31:21;;;;;;;40.20;23.80;;;3.60;99.90;;;;;;4994091;28;20030;-54
2024/02/28 05:33:46;;;;;;;40.65;23.80;;;3.60;99.90;;;;;;5011524;28;20517;-53
2024/02/28 05:36:12;;;;;;;40.38;24.40;;;3.60;99.90;;;;;;4993713;28;20042;-51
2024/02/28 05:38:37;;;;;;;39.33;24.67;;;3.60;99.90;;;;;;5011228;28;20048;-52
2024/02/28 05:41:03;;;;;;;41.90;25.50;;;3.60;99.90;;;;;;5013911;28;20026;-57
2024/02/28 05:43:28;;;;;;;36.80;22.17;;;3.60;99.90;;;;;;4997385;28;20080;-50
2024/02/28 05:45:54;;;;;;;40.13;25.02;;;3.60;99.90;;;;;;4997407;28;20037;-53
2024/02/28 05:48:20;;;;;;;43.25;25.73;;;3.60;99.90;;;;;;5014787;28;20441;-50
2024/02/28 05:50:45;;;;;;;41.13;24.42;;;3.60;99.90;;;;;;5014987;28;20033;-52
2024/02/28 05:53:11;;;;;;;44.70;23.80;;;3.60;99.90;;;;;;5014876;28;20527;-53
2024/02/28 05:55:37;;;;;;;43.70;25.08;;;3.60;99.90;;;;;;5014749;28;20052;-52
2024/02/28 05:58:03;;;;;;;40.58;24.73;;;3.60;99.90;;;;;;5015156;28;20030;-58
2024/02/28 06:00:28;;;;;;;41.40;25.23;;;3.60;99.90;;;;;;5014787;28;20478;-58
2024/02/28 06:02:54;;;;;;;44.17;24.45;;;3.60;99.90;;;;;;5014673;28;20075;-58
2024/02/28 06:05:20;;;;;;;41.70;25.42;;;3.60;99.90;;;;;;5014541;28;20076;-52
2024/02/28 06:07:45;;;;;;;43.20;25.15;;;3.60;99.90;;;;;;5014463;28;20108;-54
2024/02/28 06:10:11;;;;;;;40.88;24.13;;;3.60;99.90;;;;;;5014783;28;20621;-54
2024/02/28 06:12:36;;;;;;;47.22;27.08;;;3.60;99.90;;;;;;4996983;28;20022;-54
2024/02/28 06:15:03;;;;;;;41.58;22.88;;;3.70;99.90;;;;;;5014360;28;20534;-50
2024/02/28 06:17:29;;;;;;;41.08;24.70;;;3.70;99.90;;;;;;5014785;28;20029;-50
2024/02/28 06:19:54;;;;;;;44.00;25.52;;;3.60;99.90;;;;;;5014479;28;20026;-53
2024/02/28 06:22:20;;;;;;;49.15;24.52;;;3.70;99.90;;;;;;5014463;28;20022;-53
2024/02/28 06:24:46;;;;;;;39.58;22.52;;;3.80;99.90;;;;;;5014512;28;20113;-57
2024/02/28 06:27:13;;;;;;;40.05;22.67;;;3.70;99.90;;;;;;5014150;28;20124;-55
2024/02/28 06:29:39;;;;;;;42.97;24.38;;;;;;;;;;5014261;28;20157;-54
2024/02/28 06:32:04;;;;;;;38.33;23.92;;;3.70;99.90;;;;;;5012897;28;20049;-59
2024/02/28 06:34:30;;;;;;;39.13;23.00;;;3.80;99.90;;;;;;5013926;28;20029;-57
2024/02/28 06:36:56;;;;;;;40.88;21.95;;;4.00;99.90;;;;;;5013709;28;20026;-56
2024/02/28 06:39:22;;;;;;;35.33;22.10;;;4.20;99.90;;;;;;5013863;28;20018;-54
2024/02/28 06:41:50;;;;;;;44.90;21.73;;;4.50;99.90;;;;;;5013694;28;20033;-59
2024/02/28 06:44:16;;;;;;;41.47;21.80;;;4.60;99.90;;;;;;5013670;28;20057;-55
2024/02/28 06:46:41;;;;;;;32.58;20.58;;;5.00;99.90;;;;;;5013445;28;20493;-57
2024/02/28 06:49:07;;;;;;;31.20;19.30;;;5.20;99.90;;;;;;4995936;28;20018;-56
2024/02/28 06:51:32;;;;;;;27.13;18.63;;;5.40;99.90;;;;;;4995010;28;20485;-57
2024/02/28 06:53:58;;;;;;;32.53;19.02;;;5.80;99.90;;;;;;5013467;28;20041;-56
2024/02/28 06:56:23;;;;;;;31.77;18.17;;;6.30;99.90;;;;;;5013385;28;20030;-53
2024/02/28 06:58:49;;;;;;;30.60;19.40;;;6.70;99.90;;;;;;5013465;28;20060;-56
2024/02/28 07:01:15;;;;;;;31.27;18.92;;;7.20;99.90;;;;;;5013603;28;20033;-57
2024/02/28 07:03:40;;;;;;;30.85;19.98;;;7.50;99.90;;;;;;5013440;28;20022;-53
2024/02/28 07:06:06;;;;;;;28.58;17.95;;;8.00;99.90;;;;;;5013497;28;20034;-52
2024/02/28 07:08:32;;;;;;;35.75;20.70;;;8.10;99.90;;;;;;4995482;28;20034;-53
2024/02/28 07:10:58;;;;;;;30.45;18.75;;;8.00;99.90;;;;;;5013285;28;20042;-56
2024/02/28 07:13:24;;;;;;;33.85;20.42;;;8.30;99.90;;;;;;5013456;28;20045;-58
2024/02/28 07:15:50;;;;;;;42.42;20.95;;;8.60;99.90;;;;;;5013186;28;20030;-56
2024/02/28 07:18:15;;;;;;;29.70;19.33;;;9.00;99.90;;;;;;5013529;28;20113;-54
2024/02/28 07:20:41;;;;;;;29.25;19.85;;;9.30;99.90;;;;;;5013272;28;20250;-54
2024/02/28 07:23:06;;;;;;;31.88;19.60;;;9.40;99.90;;;;;;5013405;28;20073;-55
2024/02/28 07:25:32;;;;;;;28.98;19.55;;;9.40;99.90;;;;;;5012992;28;20112;-58
2024/02/28 07:28:02;;;;;;;30.67;19.23;;;9.30;99.90;;;;;;5013177;28;20434;-58
2024/02/28 07:30:27;;;;;;;28.25;18.85;;;9.00;99.90;;;;;;5011443;28;20108;-56
2024/02/28 07:32:53;;;;;;;27.58;18.58;;;8.80;99.90;;;;;;5013156;28;20434;-57
2024/02/28 07:35:20;;;;;;;24.75;17.48;;;8.50;99.90;;;;;;5013091;28;20041;-54
2024/02/28 07:37:46;;;;;;;31.13;21.13;;;8.70;99.90;;;;;;5012992;28;20025;-55
2024/02/28 07:40:12;;;;;;;35.95;20.50;;;8.30;99.90;;;;;;5012877;28;20014;-53
2024/02/28 07:42:38;;;;;;;34.67;21.42;;;7.70;99.90;;;;;;5012640;28;20028;-57
2024/02/28 07:45:04;;;;;;;32.70;21.67;;;7.60;99.90;;;;;;5012635;28;20490;-53
2024/02/28 07:47:29;;;;;;;36.63;20.73;;;7.50;99.90;;;;;;5012519;28;20084;-56
2024/02/28 07:49:55;;;;;;;38.88;22.20;;;7.40;99.90;;;;;;5012692;28;20405;-55
2024/02/28 07:52:20;;;;;;;32.10;20.55;;;7.00;99.90;;;;;;5012606;28;20108;-51
2024/02/28 07:54:46;;;;;;;32.58;21.15;;;7.00;99.90;;;;;;5012290;28;20038;-58
2024/02/28 07:57:12;;;;;;;29.05;18.75;;;6.80;99.90;;;;;;5012371;28;20025;-59
2024/02/28 07:59:42;;;;;;;34.53;21.63;;;6.70;99.90;;;;;;5017850;28;20083;-58
2024/02/28 08:02:08;;;;;;;41.75;21.00;;;6.50;99.90;;;;;;5016694;28;20376;-59
2024/02/28 08:04:34;;;;;;;29.83;20.35;;;6.30;99.90;;;;;;5006083;28;20030;-58
2024/02/28 08:06:59;;;;;;;33.38;21.67;;;6.20;99.90;;;;;;5000938;28;20113;-58
2024/02/28 08:09:25;;;;;;;36.85;22.63;;;6.00;99.90;;;;;;4992336;28;20075;-58
2024/02/28 08:11:51;;;;;;;38.33;23.73;;;6.10;99.90;;;;;;4996202;28;20038;-54
2024/02/28 08:14:17;;;;;;;33.67;21.15;;;6.20;99.90;;;;;;5011832;28;20024;-58
2024/02/28 08:16:43;;;;;;;37.20;21.33;;;6.10;99.90;;;;;;5011922;28;20018;-60
2024/02/28 08:19:08;;;;;;;41.50;22.83;;;6.10;99.90;;;;;;5011900;28;20101;-52
2024/02/28 08:21:34;;;;;;;33.05;21.50;;;6.10;99.90;;;;;;5011862;28;20045;-58
2024/02/28 08:23:59;;;;;;;33.28;22.13;;;6.20;99.90;;;;;;5002988;28;20022;-53
2024/02/28 08:26:25;;;;;;;38.53;22.08;;;6.30;99.90;;;;;;5011692;28;20497;-53
2024/02/28 08:28:50;;;;;;;39.38;22.77;;;6.30;99.90;;;;;;5011484;28;20397;-53
2024/02/28 08:31:16;;;;;;;36.85;20.80;;;6.30;99.90;;;;;;4999235;28;20061;-53
2024/02/28 08:33:41;;;;;;;43.83;23.33;;;6.20;99.90;;;;;;5002995;28;20042;-53
2024/02/28 08:36:07;;;;;;;33.90;20.77;;;6.20;99.90;;;;;;5007515;28;20037;-53
2024/02/28 08:38:34;;;;;;;36.65;22.55;;;6.10;99.90;;;;;;4994553;28;20072;-56
2024/02/28 08:41:00;;;;;;;39.17;23.13;;;6.20;99.90;;;;;;4999568;28;20022;-53
2024/02/28 08:43:25;;;;;;;35.63;22.15;;;6.10;99.90;;;;;;5008491;28;20479;-58
2024/02/28 08:45:51;;;;;;;35.53;21.63;;;5.90;99.90;;;;;;4994843;28;20109;-55
2024/02/28 08:48:17;;;;;;;39.10;23.90;;;5.90;99.90;;;;;;5001965;28;20042;-57
2024/02/28 08:50:42;;;;;;;36.75;22.70;;;5.90;99.90;;;;;;4992330;28;20026;-58
2024/02/28 08:53:08;;;;;;;34.63;23.40;;;6.00;99.90;;;;;;4993260;28;20030;-56
2024/02/28 08:55:33;;;;;;;34.47;22.08;;;6.00;99.90;;;;;;4993253;28;20026;-57
2024/02/28 08:57:59;;;;;;;37.42;22.92;;;6.00;99.90;;;;;;5003647;28;20105;-56
2024/02/28 09:00:25;;;;;;;36.55;21.73;;;6.30;99.90;;;;;;4999785;28;20562;-61
2024/02/28 09:02:50;;;;;;;37.25;23.45;;;6.20;99.90;;;;;;5011415;28;20389;-59
2024/02/28 09:05:16;;;;;;;38.63;23.85;;;6.20;99.90;;;;;;5011502;28;20033;-56
2024/02/28 09:07:41;;;;;;;37.10;21.65;;;6.10;99.90;;;;;;5011337;28;20030;-59
2024/02/28 09:10:07;;;;;;;36.33;22.25;;;6.10;99.90;;;;;;5003139;28;20481;-57
2024/02/28 09:12:33;;;;;;;39.33;23.13;;;6.20;99.90;;;;;;4999313;28;20126;-59
2024/02/28 09:14:59;;;;;;;35.45;22.05;;;6.20;99.90;;;;;;4999453;28;20061;-59
2024/02/28 09:17:25;;;;;;;39.42;24.23;;;6.30;99.90;;;;;;5006221;28;20022;-58
2024/02/28 09:19:52;;;;;;;35.83;22.30;;;6.40;99.90;;;;;;5017576;28;20055;-57
2024/02/28 09:22:17;;;;;;;37.35;22.40;;;6.50;99.90;;;;;;5003015;28;20026;-53
2024/02/28 09:24:43;;;;;;;39.47;22.42;;;6.50;99.90;;;;;;4997327;28;20026;-51
2024/02/28 09:27:09;;;;;;;37.35;22.50;;;6.60;99.90;;;;;;5013390;28;20116;-53
2024/02/28 09:29:34;;;;;;;35.20;22.23;;;6.80;99.90;;;;;;5013303;28;20070;-53
2024/02/28 09:32:00;;;;;;;36.10;21.48;;;7.00;99.90;;;;;;4998358;28;20045;-52
2024/02/28 09:34:26;;;;;;;32.85;20.88;;;7.80;99.90;;;;;;5002972;28;20025;-55
2024/02/28 09:36:51;;;;;;;32.25;19.90;;;8.90;99.90;;;;;;5013007;28;20208;-58
2024/02/28 09:39:17;;;;;;;29.95;19.58;;;10.10;99.90;;;;;;5000591;28;20061;-54
2024/02/28 09:41:42;;;;;;;30.13;19.73;;;10.90;99.90;;;;;;5012044;28;20029;-52
2024/02/28 09:44:08;;;;;;;26.75;17.92;;;12.90;99.90;;;;;;5003046;28;20031;-55
2024/02/28 09:46:37;;;;;;;30.77;19.88;;;12.80;99.90;;;;;;4995058;28;20033;-49
2024/02/28 09:49:05;;;;;;;26.77;17.50;;;12.80;99.90;;;;;;4995095;28;20457;-53
2024/02/28 09:51:35;;;;;;;29.05;20.02;;;13.30;99.90;;;;;;5010463;28;20033;-50
2024/02/28 09:54:04;;;;;;;23.75;16.45;;;14.00;99.90;;;;;;4994786;28;20031;-50
2024/02/28 09:56:30;;;;;;;28.15;17.92;;;14.80;99.40;;;;;;4995290;28;20022;-52
2024/02/28 09:58:56;;;;;;;22.65;17.73;;;15.30;98.30;;;;;;4994802;28;20037;-53
2024/02/28 10:01:22;;;;;;;69.57;44.28;;;16.10;96.80;;;;;;4994782;28;20502;-48
2024/02/28 10:03:51;;;;;;;59.80;41.25;;;16.00;96.00;;;;;;4994864;28;20105;-53
2024/02/28 10:06:17;;;;;;;53.53;34.00;;;16.00;95.00;;;;;;4994821;28;20409;-54
2024/02/28 10:08:42;;;;;;;23.85;18.55;;;15.60;95.50;;;;;;4995063;28;20022;-51
2024/02/28 10:11:08;;;;;;;26.83;18.70;;;14.70;96.90;;;;;;5006836;28;20520;-46
2024/02/28 10:13:33;;;;;;;24.42;19.13;;;14.60;97.20;;;;;;5033859;28;20033;-48
2024/02/28 10:15:59;;;;;;;29.00;19.45;;;14.70;97.20;;;;;;5000939;28;20026;-49
2024/02/28 10:18:26;;;;;;;26.25;18.65;;;14.70;97.10;;;;;;5013853;28;20404;-48
2024/02/28 10:20:51;;;;;;;22.63;18.00;;;14.30;97.60;;;;;;5014590;28;20022;-47
2024/02/28 10:23:17;;;;;;;27.42;18.92;;;14.30;97.90;;;;;;5014781;28;20071;-47
2024/02/28 10:25:47;;;;;;;26.35;18.27;;;14.00;98.40;;;;;;5013501;28;20394;-48
2024/02/28 10:28:14;;;;;;;25.25;18.65;;;14.20;98.00;;;;;;5012628;28;20045;-51
2024/02/28 10:30:41;;;;;;;25.30;17.85;;;13.70;98.40;;;;;;5014444;28;20144;-48
2024/02/28 10:33:12;;;;;;;26.33;18.80;;;13.10;99.60;;;;;;5014456;28;20033;-49
2024/02/28 10:35:39;;;;;;;28.85;19.15;;;12.80;99.80;;;;;;5014215;28;20030;-48
2024/02/28 10:38:05;;;;;;;32.20;19.02;;;13.10;99.90;;;;;;5012239;28;20037;-50
2024/02/28 10:40:31;;;;;;;26.20;18.38;;;13.10;99.90;;;;;;5011675;28;20084;-51
2024/02/28 10:42:58;;;;;;;25.67;18.42;;;12.90;99.90;;;;;;5013410;28;20053;-50
2024/02/28 10:45:29;;;;;;;32.08;20.27;;;13.10;99.90;;;;;;5012573;28;20523;-53
2024/02/28 10:47:55;;;;;;;26.33;18.83;;;12.90;99.90;;;;;;5013128;28;20219;-53
2024/02/28 10:50:20;;;;;;;30.48;19.73;;;12.70;99.90;;;;;;5013528;28;20034;-53
2024/02/28 10:52:50;;;;;;;29.75;19.88;;;12.40;99.90;;;;;;5013417;28;20034;-53
2024/02/28 10:55:24;;;;;;;30.50;20.45;;;12.10;99.90;;;;;;5013714;28;20096;-53
2024/02/28 10:58:01;;;;;;;31.05;20.45;;;12.10;99.90;;;;;;5013346;28;20398;-54
2024/02/28 11:00:28;;;;;;;28.80;20.10;;;11.80;99.90;;;;;;5013547;28;20061;-50
2024/02/28 11:02:54;;;;;;;28.65;19.08;;;11.80;99.90;;;;;;5002639;28;20052;-48
2024/02/28 11:05:19;;;;;;;27.02;18.95;;;11.90;99.90;;;;;;5011584;28;20034;-50
2024/02/28 11:07:45;;;;;;;31.35;21.00;;;12.10;99.90;;;;;;5009770;28;20040;-51
2024/02/28 11:10:12;;;;;;;29.50;18.73;;;12.20;99.90;;;;;;4995210;28;20374;-59
2024/02/28 11:12:37;;;;;;;27.73;19.05;;;12.30;99.90;;;;;;5002081;28;20393;-53
2024/02/28 11:15:06;;;;;;;28.63;19.17;;;12.30;99.90;;;;;;5011907;28;20037;-54
2024/02/28 11:17:32;;;;;;;26.17;18.33;;;12.30;99.90;;;;;;5004792;28;20371;-51
2024/02/28 11:19:59;;;;;;;51.90;30.80;;;12.30;99.90;;;;;;5004348;28;20041;-55
2024/02/28 11:22:28;;;;;;;82.05;51.05;;;12.20;99.90;;;;;;4994020;28;20050;-52
2024/02/28 11:24:55;;;;;;;34.00;22.98;;;12.00;99.90;;;;;;5001382;28;20026;-53
2024/02/28 11:27:20;;;;;;;28.25;19.45;;;11.70;99.90;;;;;;4993474;28;20242;-52
2024/02/28 11:29:46;;;;;;;24.10;16.90;;;11.50;99.90;;;;;;4993386;28;20053;-54
2024/02/28 11:32:13;;;;;;;28.48;18.88;;;11.30;99.90;;;;;;5005512;28;20018;-53
2024/02/28 11:34:40;;;;;;;29.48;19.45;;;11.40;99.90;;;;;;4996020;28;20096;-54
2024/02/28 11:37:06;;;;;;;29.08;19.02;;;11.40;99.90;;;;;;4996319;28;20022;-54
2024/02/28 11:39:32;;;;;;;27.02;18.48;;;11.30;99.90;;;;;;5012410;28;20069;-52
2024/02/28 11:42:18;;;;;;;31.35;20.15;;;11.20;99.90;;;;;;5012632;28;20014;-55
2024/02/28 11:44:52;;;;;;;33.25;20.42;;;11.30;99.90;;;;;;5012191;28;20073;-54
2024/02/28 11:47:18;;;;;;;31.15;21.35;;;11.10;99.90;;;;;;4994638;28;20033;-53
2024/02/28 11:49:44;;;;;;;27.33;18.15;;;10.90;99.90;;;;;;5005157;28;20037;-55
2024/02/28 11:52:11;;;;;;;27.35;17.55;;;10.80;99.90;;;;;;4992517;28;20084;-54
2024/02/28 11:54:37;;;;;;;25.98;17.27;;;10.50;99.90;;;;;;4992724;28;20022;-54
2024/02/28 11:57:03;;;;;;;29.15;15.15;;;10.40;99.90;;;;;;4992484;28;20073;-55
2024/02/28 11:59:29;;;;;;;24.15;16.35;;;10.40;99.90;;;;;;5011947;28;20101;-56
2024/02/28 12:01:55;;;;;;;21.10;15.95;;;10.30;99.90;;;;;;4994139;28;20033;-52
2024/02/28 12:04:24;;;;;;;24.77;16.42;;;10.20;99.90;;;;;;5012207;28;20022;-54
2024/02/28 12:06:50;;;;;;;23.92;15.02;;;10.20;99.90;;;;;;5012139;28;20220;-52
2024/02/28 12:09:15;;;;;;;22.85;16.63;;;10.20;99.90;;;;;;5011924;28;20047;-50
2024/02/28 12:11:41;;;;;;;23.20;15.18;;;10.20;99.90;;;;;;4998019;28;20145;-51
2024/02/28 12:14:09;;;;;;;23.98;14.55;;;10.20;99.90;;;;;;4993027;28;20045;-52
2024/02/28 12:16:40;;;;;;;21.63;13.63;;;10.20;99.90;;;;;;5011845;28;20245;-47
2024/02/28 12:19:11;;;;;;;20.92;13.65;;;10.20;99.90;;;;;;5012097;28;20053;-50
2024/02/28 12:21:38;;;;;;;21.95;15.02;;;10.20;99.90;;;;;;5011958;28;20022;-52
2024/02/28 12:24:07;;;;;;;22.88;15.02;;;10.10;99.90;;;;;;4994127;28;20030;-50
2024/02/28 12:26:32;;;;;;;26.10;17.52;;;10.20;99.90;;;;;;4991342;28;20057;-55
2024/02/28 12:28:58;;;;;;;26.33;17.73;;;10.30;99.90;;;;;;4992382;28;20030;-51
2024/02/28 12:31:24;;;;;;;30.95;19.45;;;10.30;99.90;;;;;;4992242;28;20453;-52